createdAt,value
2022-10-04T00:04:16.271Z,56.13
2022-10-04T00:09:18.654Z,56.15
2022-10-04T00:14:29.637Z,56.34
2022-10-04T00:19:39.806Z,56.02
2022-10-04T00:24:40.871Z,56.05
2022-10-04T00:29:41.457Z,56.36
2022-10-04T00:34:47.325Z,56.48
2022-10-04T00:39:46.016Z,56.53
2022-10-04T00:44:51.135Z,56.45
2022-10-04T00:49:55.534Z,56.74
2022-10-04T00:55:02.191Z,56.60
2022-10-04T01:00:03.564Z,56.59
2022-10-04T01:05:06.169Z,56.51
2022-10-04T01:10:08.848Z,56.54
2022-10-04T01:15:13.796Z,56.72
2022-10-04T01:20:32.859Z,56.61
2022-10-04T01:25:49.490Z,56.77
2022-10-04T01:30:46.764Z,57.04
2022-10-04T01:35:45.163Z,56.99
2022-10-04T01:40:51.135Z,56.91
2022-10-04T01:45:56.951Z,57.21
2022-10-04T01:50:58.734Z,57.31
2022-10-04T01:56:05.577Z,57.38
2022-10-04T02:01:09.874Z,57.53
2022-10-04T02:06:10.185Z,57.67
2022-10-04T02:11:07.442Z,57.77
2022-10-04T02:16:11.907Z,57.89
2022-10-04T02:21:10.269Z,57.79
2022-10-04T02:26:08.269Z,58.00
2022-10-04T02:31:24.606Z,58.23
2022-10-04T02:36:27.964Z,58.34
2022-10-04T02:41:31.627Z,58.35
2022-10-04T02:46:33.791Z,58.47
2022-10-04T02:51:41.722Z,58.69
2022-10-04T02:56:42.449Z,58.72
2022-10-04T03:01:51.005Z,58.99
2022-10-04T03:06:50.241Z,59.09
2022-10-04T03:11:49.575Z,59.14
2022-10-04T03:16:53.285Z,59.27
2022-10-04T03:21:55.765Z,59.38
2022-10-04T03:26:57.026Z,59.37
2022-10-04T03:37:21.066Z,59.46
2022-10-04T03:42:23.739Z,59.43
2022-10-04T03:47:25.567Z,59.87
2022-10-04T03:52:27.151Z,59.77
2022-10-04T03:57:33.623Z,59.94
2022-10-04T04:02:36.311Z,60.10
2022-10-04T04:07:40.026Z,60.10
2022-10-04T04:12:40.584Z,60.18
2022-10-04T04:17:44.365Z,60.28
2022-10-04T04:23:24.160Z,60.32
2022-10-04T04:28:30.793Z,60.32
2022-10-04T04:33:56.054Z,60.28
2022-10-04T04:39:39.081Z,60.49
2022-10-04T04:44:37.792Z,60.43
2022-10-04T04:49:58.665Z,60.52
2022-10-04T04:55:19.071Z,60.56
2022-10-04T05:00:52.171Z,60.53
2022-10-04T05:06:26.645Z,60.32
2022-10-04T05:11:54.523Z,60.25
2022-10-04T05:17:24.817Z,60.05
2022-10-04T05:22:29.882Z,60.15
2022-10-04T05:27:32.690Z,59.98
2022-10-04T05:32:48.540Z,59.76
2022-10-04T05:38:04.288Z,59.76
2022-10-04T05:43:57.112Z,58.85
2022-10-04T05:55:24.326Z,57.16
2022-10-04T06:01:40.861Z,56.25
2022-10-04T06:06:49.230Z,55.62
2022-10-04T06:12:01.635Z,55.06
2022-10-04T06:17:18.394Z,54.59
2022-10-04T06:22:16.828Z,54.06
2022-10-04T06:27:23.015Z,53.20
2022-10-04T06:32:56.515Z,52.50
2022-10-04T06:38:36.960Z,51.87
2022-10-04T06:44:18.565Z,51.05
2022-10-04T06:49:33.448Z,49.96
2022-10-04T06:54:50.181Z,46.89
2022-10-04T07:00:04.132Z,43.60
2022-10-04T07:05:38.867Z,41.56
2022-10-04T07:11:01.542Z,37.41
2022-10-04T07:16:03.773Z,36.27
2022-10-04T07:21:11.903Z,36.42
2022-10-04T07:26:24.864Z,36.62
2022-10-04T07:31:26.862Z,37.14
2022-10-04T07:36:50.680Z,37.28
2022-10-04T07:42:24.617Z,37.94
2022-10-04T07:47:25.823Z,37.83
2022-10-04T07:52:37.490Z,37.33
2022-10-04T07:57:41.240Z,35.90
2022-10-04T08:02:49.746Z,34.62
2022-10-04T08:08:23.303Z,33.33
2022-10-04T08:13:26.185Z,31.48
2022-10-04T08:19:01.137Z,28.66
2022-10-04T08:24:16.318Z,26.84
2022-10-04T08:29:49.836Z,25.50
2022-10-04T08:35:15.764Z,24.21
2022-10-04T08:41:04.065Z,23.79
2022-10-04T08:46:55.451Z,23.21
2022-10-04T08:52:49.237Z,22.43
2022-10-04T08:58:24.363Z,21.75
2022-10-04T09:04:26.306Z,22.34
2022-10-04T09:10:04.107Z,21.13
2022-10-04T09:15:29.389Z,20.70
2022-10-04T09:21:45.506Z,19.40
2022-10-04T09:27:53.726Z,19.65
2022-10-04T09:33:32.884Z,19.47
2022-10-04T09:39:28.997Z,18.84
2022-10-04T09:51:46.477Z,17.28
2022-10-04T09:57:30.295Z,18.11
2022-10-04T10:03:31.095Z,18.56
2022-10-04T10:09:24.864Z,17.55
2022-10-04T10:15:07.720Z,18.71
2022-10-04T10:20:57.664Z,18.87
2022-10-04T10:26:41.796Z,19.03
2022-10-04T10:32:35.260Z,19.05
2022-10-04T10:37:49.947Z,19.67
2022-10-04T10:43:16.791Z,20.40
2022-10-04T10:48:23.444Z,19.72
2022-10-04T10:53:49.866Z,20.27
2022-10-04T10:59:37.345Z,21.33
2022-10-04T11:05:00.783Z,22.27
2022-10-04T11:10:39.078Z,23.57
2022-10-04T11:15:51.046Z,24.62
2022-10-04T11:21:27.837Z,25.13
2022-10-04T11:27:09.297Z,25.01
2022-10-04T11:38:30.366Z,27.20
2022-10-04T11:44:10.466Z,26.61
2022-10-04T11:49:23.773Z,28.40
2022-10-04T11:55:09.824Z,29.14
2022-10-04T12:00:50.623Z,29.01
2022-10-04T12:06:23.069Z,29.18
2022-10-04T12:11:59.109Z,29.35
2022-10-04T12:17:43.414Z,29.41
2022-10-04T12:23:48.039Z,29.75
2022-10-04T12:29:04.024Z,29.96
2022-10-04T12:34:38.432Z,30.23
2022-10-04T12:46:32.477Z,30.59
2022-10-04T12:52:07.019Z,30.92
2022-10-04T12:57:52.256Z,31.51
2022-10-04T13:03:35.130Z,31.87
2022-10-04T13:10:05.377Z,31.51
2022-10-04T13:22:05.439Z,32.19
2022-10-04T13:27:36.317Z,32.60
2022-10-04T13:32:51.601Z,32.63
2022-10-04T13:38:03.941Z,33.15
2022-10-04T13:43:49.022Z,33.70
2022-10-04T13:48:57.646Z,34.04
2022-10-04T13:54:25.321Z,34.43
2022-10-04T13:59:42.184Z,34.80
2022-10-04T14:05:24.428Z,34.81
2022-10-04T14:10:47.695Z,35.31
2022-10-04T14:16:23.090Z,35.19
2022-10-04T14:21:59.691Z,35.65
2022-10-04T14:27:42.655Z,35.91
2022-10-04T14:39:55.698Z,36.53
2022-10-04T14:45:40.631Z,36.49
2022-10-04T14:50:59.936Z,36.86
2022-10-04T14:56:52.285Z,36.31
2022-10-04T15:02:28.874Z,36.35
2022-10-04T15:07:43.051Z,36.05
2022-10-04T15:13:16.835Z,36.43
2022-10-04T15:18:32.283Z,36.62
2022-10-04T15:23:49.048Z,36.81
2022-10-04T15:29:38.710Z,37.67
2022-10-04T15:35:18.624Z,38.30
2022-10-04T15:41:32.783Z,38.91
2022-10-04T15:46:57.616Z,39.90
2022-10-04T15:53:05.317Z,41.21
2022-10-04T15:58:40.984Z,41.76
2022-10-04T16:04:24.381Z,42.81
2022-10-04T16:10:07.388Z,43.39
2022-10-04T16:21:36.140Z,44.55
2022-10-04T16:27:16.722Z,44.67
2022-10-04T16:33:29.289Z,44.92
2022-10-04T16:39:07.829Z,45.24
2022-10-04T16:45:12.109Z,45.93
2022-10-04T16:50:48.205Z,46.04
2022-10-04T16:56:18.350Z,46.29
2022-10-04T17:01:55.288Z,46.39
2022-10-04T17:07:00.842Z,46.50
2022-10-04T17:12:42.225Z,46.20
2022-10-04T17:18:22.273Z,46.30
2022-10-04T17:23:51.230Z,45.90
2022-10-04T17:29:54.406Z,45.66
2022-10-04T17:35:15.236Z,45.04
2022-10-04T17:40:51.744Z,43.87
2022-10-04T17:46:47.744Z,44.84
2022-10-04T17:52:21.163Z,45.02
2022-10-04T18:10:24.308Z,45.50
2022-10-04T18:15:26.251Z,45.46
2022-10-04T18:20:33.683Z,46.11
2022-10-04T18:25:43.719Z,46.50
2022-10-04T18:30:58.527Z,46.74
2022-10-04T18:36:14.414Z,46.63
2022-10-04T18:41:22.929Z,46.97
2022-10-04T18:46:22.909Z,47.52
2022-10-04T18:52:04.520Z,47.73
2022-10-04T18:58:07.421Z,48.06
2022-10-04T19:03:16.613Z,48.17
2022-10-04T19:08:30.157Z,48.14
2022-10-04T19:13:38.418Z,48.58
2022-10-04T19:18:57.919Z,48.73
2022-10-04T19:24:52.148Z,48.93
2022-10-04T19:30:23.827Z,49.01
2022-10-04T19:35:45.744Z,49.26
2022-10-04T19:40:48.208Z,49.13
2022-10-04T19:46:01.624Z,48.78
2022-10-04T19:51:08.202Z,49.00
2022-10-04T19:56:24.243Z,48.76
2022-10-04T20:01:24.445Z,48.31
2022-10-04T20:06:25.626Z,48.05
2022-10-04T20:11:27.170Z,48.08
2022-10-04T20:17:05.893Z,47.90
2022-10-04T20:22:28.911Z,48.09
2022-10-04T20:28:14.078Z,47.85
2022-10-04T20:33:38.854Z,47.69
2022-10-04T20:39:01.553Z,47.41
2022-10-04T20:44:01.687Z,47.58
2022-10-04T20:48:59.366Z,47.62
2022-10-04T20:54:03.272Z,47.70
2022-10-04T20:59:01.588Z,48.11
2022-10-04T21:04:16.535Z,48.37
2022-10-04T21:09:14.646Z,48.41
2022-10-04T21:14:22.869Z,48.49
2022-10-04T21:19:54.912Z,48.65
2022-10-04T21:24:55.780Z,49.04
2022-10-04T21:29:53.162Z,49.17
2022-10-04T21:34:56.056Z,49.33
2022-10-04T21:39:55.781Z,49.53
2022-10-04T21:44:53.075Z,49.67
2022-10-04T21:49:52.080Z,49.53
2022-10-04T21:54:49.111Z,49.76
2022-10-04T21:59:47.411Z,49.70
2022-10-04T22:04:44.197Z,49.62
2022-10-04T22:09:41.035Z,49.76
2022-10-04T22:14:37.916Z,49.69
2022-10-04T22:19:36.075Z,49.84
2022-10-04T22:24:32.961Z,49.93
2022-10-04T22:29:34.274Z,49.85
2022-10-04T22:34:31.758Z,49.95
2022-10-04T22:39:33.067Z,50.47
2022-10-04T22:44:34.581Z,50.27
2022-10-04T22:49:33.917Z,50.45
2022-10-04T22:54:33.730Z,50.45
2022-10-04T22:59:37.926Z,50.54
2022-10-04T23:04:36.354Z,50.73
2022-10-04T23:09:38.328Z,50.94
2022-10-04T23:14:38.268Z,51.09
2022-10-04T23:19:36.455Z,51.25
2022-10-04T23:24:42.820Z,51.53
2022-10-04T23:29:40.093Z,51.53
2022-10-04T23:34:39.039Z,51.81
2022-10-04T23:39:37.038Z,52.18
2022-10-04T23:44:35.751Z,52.00
2022-10-04T23:49:32.748Z,52.40
2022-10-04T23:54:30.016Z,52.75
2022-10-04T23:59:28.957Z,52.73
